sensor_id;sensor_type;location;lat;lon;timestamp;pressure;altitude;pressure_sealevel;temperature;humidity
63321;BME280;49449;48.800;9.534;2023-02-28T00:01:13;99248.41;;;0.78;30.38
63321;BME280;49449;48.800;9.534;2023-02-28T00:03:42;99248.13;;;0.81;30.13
63321;BME280;49449;48.800;9.534;2023-02-28T00:06:10;99254.59;;;0.77;30.21
63321;BME280;49449;48.800;9.534;2023-02-28T00:08:38;99249.53;;;0.75;30.64
63321;BME280;49449;48.800;9.534;2023-02-28T00:11:09;99249.66;;;0.74;30.70
63321;BME280;49449;48.800;9.534;2023-02-28T00:13:39;99245.06;;;0.68;30.11
63321;BME280;49449;48.800;9.534;2023-02-28T00:16:09;99240.06;;;0.74;30.53
63321;BME280;49449;48.800;9.534;2023-02-28T00:18:37;99246.66;;;0.78;30.37
63321;BME280;49449;48.800;9.534;2023-02-28T00:21:06;99240.47;;;0.79;30.35
63321;BME280;49449;48.800;9.534;2023-02-28T00:23:34;99238.31;;;0.75;30.24
63321;BME280;49449;48.800;9.534;2023-02-28T00:26:03;99238.34;;;0.65;31.21
63321;BME280;49449;48.800;9.534;2023-02-28T00:28:32;99242.16;;;0.71;31.27
63321;BME280;49449;48.800;9.534;2023-02-28T00:31:02;99243.66;;;0.73;31.52
63321;BME280;49449;48.800;9.534;2023-02-28T00:33:30;99239.25;;;0.74;30.68
63321;BME280;49449;48.800;9.534;2023-02-28T00:36:03;99241.63;;;0.67;31.44
63321;BME280;49449;48.800;9.534;2023-02-28T00:38:31;99244.16;;;0.59;32.01
63321;BME280;49449;48.800;9.534;2023-02-28T00:40:59;99248.91;;;0.64;31.07
63321;BME280;49449;48.800;9.534;2023-02-28T00:43:33;99239.88;;;0.68;30.65
63321;BME280;49449;48.800;9.534;2023-02-28T00:46:02;99247.72;;;0.58;31.96
63321;BME280;49449;48.800;9.534;2023-02-28T00:48:30;99248.91;;;0.64;30.83
63321;BME280;49449;48.800;9.534;2023-02-28T00:50:58;99248.09;;;0.63;30.80
63321;BME280;49449;48.800;9.534;2023-02-28T00:53:26;99251.88;;;0.69;31.59
63321;BME280;49449;48.800;9.534;2023-02-28T00:55:54;99245.59;;;0.71;31.48
63321;BME280;49449;48.800;9.534;2023-02-28T00:58:22;99245.13;;;0.76;31.32
63321;BME280;49449;48.800;9.534;2023-02-28T01:00:52;99243.66;;;0.73;30.64
63321;BME280;49449;48.800;9.534;2023-02-28T01:03:21;99240.22;;;0.73;30.56
63321;BME280;49449;48.800;9.534;2023-02-28T01:05:48;99240.69;;;0.68;32.00
63321;BME280;49449;48.800;9.534;2023-02-28T01:08:16;99239.88;;;0.68;31.42
63321;BME280;49449;48.800;9.534;2023-02-28T01:10:45;99245.41;;;0.73;31.00
63321;BME280;49449;48.800;9.534;2023-02-28T01:13:13;99247.88;;;0.74;34.03
63321;BME280;49449;48.800;9.534;2023-02-28T01:15:43;99243.13;;;0.70;36.02
63321;BME280;49449;48.800;9.534;2023-02-28T01:18:14;99237.78;;;0.71;33.93
63321;BME280;49449;48.800;9.534;2023-02-28T01:20:42;99231.47;;;0.74;32.44
63321;BME280;49449;48.800;9.534;2023-02-28T01:23:10;99235.19;;;0.71;32.69
63321;BME280;49449;48.800;9.534;2023-02-28T01:25:38;99235.03;;;0.73;32.04
63321;BME280;49449;48.800;9.534;2023-02-28T01:28:06;99239.94;;;0.76;32.20
63321;BME280;49449;48.800;9.534;2023-02-28T01:30:34;99232.97;;;0.76;32.75
63321;BME280;49449;48.800;9.534;2023-02-28T01:33:02;99240.06;;;0.74;32.11
63321;BME280;49449;48.800;9.534;2023-02-28T01:35:33;99235.84;;;0.73;32.27
63321;BME280;49449;48.800;9.534;2023-02-28T01:38:02;99241.72;;;0.75;32.34
63321;BME280;49449;48.800;9.534;2023-02-28T01:40:46;99230.94;;;0.70;32.59
63321;BME280;49449;48.800;9.534;2023-02-28T01:43:20;99231.88;;;0.69;32.67
63321;BME280;49449;48.800;9.534;2023-02-28T01:45:48;99227.38;;;0.71;31.93
63321;BME280;49449;48.800;9.534;2023-02-28T01:48:16;99234.88;;;0.74;33.14
63321;BME280;49449;48.800;9.534;2023-02-28T01:50:47;99236.81;;;0.72;32.80
63321;BME280;49449;48.800;9.534;2023-02-28T01:53:18;99229.66;;;0.74;32.42
63321;BME280;49449;48.800;9.534;2023-02-28T01:55:49;99234.88;;;0.74;32.53
63321;BME280;49449;48.800;9.534;2023-02-28T01:58:21;99225.00;;;0.78;31.57
63321;BME280;49449;48.800;9.534;2023-02-28T02:00:49;99226.88;;;0.68;33.15
63321;BME280;49449;48.800;9.534;2023-02-28T02:03:18;99227.28;;;0.63;32.74
63321;BME280;49449;48.800;9.534;2023-02-28T02:05:48;99220.75;;;0.59;32.14
63321;BME280;49449;48.800;9.534;2023-02-28T02:08:19;99225.50;;;0.64;32.90
63321;BME280;49449;48.800;9.534;2023-02-28T02:10:50;99221.50;;;0.69;32.48
63321;BME280;49449;48.800;9.534;2023-02-28T02:13:24;99215.94;;;0.64;33.96
63321;BME280;49449;48.800;9.534;2023-02-28T02:16:01;99212.84;;;0.51;31.94
63321;BME280;49449;48.800;9.534;2023-02-28T02:18:38;99208.19;;;0.54;33.86
63321;BME280;49449;48.800;9.534;2023-02-28T02:21:21;99206.75;;;0.60;32.32
63321;BME280;49449;48.800;9.534;2023-02-28T02:24:07;99210.34;;;0.59;32.03
63321;BME280;49449;48.800;9.534;2023-02-28T02:29:57;99202.88;;;0.46;33.60
63321;BME280;49449;48.800;9.534;2023-02-28T02:32:40;99201.50;;;0.52;32.63
63321;BME280;49449;48.800;9.534;2023-02-28T02:35:14;99198.72;;;0.53;33.29
63321;BME280;49449;48.800;9.534;2023-02-28T02:37:50;99202.69;;;0.57;33.24
63321;BME280;49449;48.800;9.534;2023-02-28T02:40:22;99197.50;;;0.57;32.81
63321;BME280;49449;48.800;9.534;2023-02-28T02:42:52;99200.38;;;0.54;33.64
63321;BME280;49449;48.800;9.534;2023-02-28T02:45:25;99202.84;;;0.56;33.15
63321;BME280;49449;48.800;9.534;2023-02-28T02:47:58;99203.50;;;0.58;33.24
63321;BME280;49449;48.800;9.534;2023-02-28T02:50:32;99211.03;;;0.61;33.23
63321;BME280;49449;48.800;9.534;2023-02-28T02:53:02;99210.03;;;0.62;32.97
63321;BME280;49449;48.800;9.534;2023-02-28T02:55:31;99206.75;;;0.60;33.90
63321;BME280;49449;48.800;9.534;2023-02-28T02:58:03;99203.78;;;0.55;33.33
63321;BME280;49449;48.800;9.534;2023-02-28T03:00:34;99202.69;;;0.57;33.54
63321;BME280;49449;48.800;9.534;2023-02-28T03:03:07;99196.13;;;0.53;33.49
63321;BME280;49449;48.800;9.534;2023-02-28T03:05:41;99193.38;;;0.55;33.47
63321;BME280;49449;48.800;9.534;2023-02-28T03:08:11;99195.78;;;0.48;33.42
63321;BME280;49449;48.800;9.534;2023-02-28T03:10:41;99194.78;;;0.49;33.20
63321;BME280;49449;48.800;9.534;2023-02-28T03:16:19;99197.78;;;0.54;33.65
63321;BME280;49449;48.800;9.534;2023-02-28T03:18:54;99200.09;;;0.57;33.16
63321;BME280;49449;48.800;9.534;2023-02-28T03:21:34;99198.59;;;0.55;33.01
63321;BME280;49449;48.800;9.534;2023-02-28T03:24:08;99205.84;;;0.51;33.02
63321;BME280;49449;48.800;9.534;2023-02-28T03:26:41;99203.56;;;0.48;33.46
63321;BME280;49449;48.800;9.534;2023-02-28T03:29:14;99203.41;;;0.50;33.69
63321;BME280;49449;48.800;9.534;2023-02-28T03:31:48;99198.19;;;0.50;34.02
63321;BME280;49449;48.800;9.534;2023-02-28T03:34:23;99205.19;;;0.49;32.92
63321;BME280;49449;48.800;9.534;2023-02-28T03:36:59;99209.13;;;0.53;32.84
63321;BME280;49449;48.800;9.534;2023-02-28T03:39:33;99207.88;;;0.57;33.25
63321;BME280;49449;48.800;9.534;2023-02-28T03:42:06;99205.72;;;0.53;33.77
63321;BME280;49449;48.800;9.534;2023-02-28T03:44:40;99208.22;;;0.45;33.11
63321;BME280;49449;48.800;9.534;2023-02-28T03:47:12;99195.91;;;0.47;34.33
63321;BME280;49449;48.800;9.534;2023-02-28T03:49:46;99207.78;;;0.49;34.09
63321;BME280;49449;48.800;9.534;2023-02-28T03:52:19;99201.31;;;0.53;34.70
63321;BME280;49449;48.800;9.534;2023-02-28T03:54:53;99209.97;;;0.54;32.98
63321;BME280;49449;48.800;9.534;2023-02-28T03:57:27;99207.50;;;0.52;32.77
63321;BME280;49449;48.800;9.534;2023-02-28T04:00:04;99208.56;;;0.32;32.86
63321;BME280;49449;48.800;9.534;2023-02-28T04:02:34;99205.16;;;0.31;34.18
63321;BME280;49449;48.800;9.534;2023-02-28T04:05:02;99211.56;;;0.37;34.09
63321;BME280;49449;48.800;9.534;2023-02-28T04:07:31;99199.22;;;0.39;34.14
63321;BME280;49449;48.800;9.534;2023-02-28T04:09:59;99211.50;;;0.47;33.96
63321;BME280;49449;48.800;9.534;2023-02-28T04:12:27;99209.72;;;0.47;33.94
63321;BME280;49449;48.800;9.534;2023-02-28T04:14:55;99205.19;;;0.49;33.61
63321;BME280;49449;48.800;9.534;2023-02-28T04:17:22;99209.44;;;0.50;34.45
63321;BME280;49449;48.800;9.534;2023-02-28T04:19:50;99211.19;;;0.50;34.63
63321;BME280;49449;48.800;9.534;2023-02-28T04:22:18;99215.44;;;0.51;34.38
63321;BME280;49449;48.800;9.534;2023-02-28T04:24:47;99214.25;;;0.45;33.95
63321;BME280;49449;48.800;9.534;2023-02-28T04:27:15;99213.38;;;0.54;35.32
63321;BME280;49449;48.800;9.534;2023-02-28T04:29:43;99212.25;;;0.57;34.33
63321;BME280;49449;48.800;9.534;2023-02-28T04:32:11;99211.41;;;0.66;34.69
63321;BME280;49449;48.800;9.534;2023-02-28T04:34:39;99215.34;;;0.70;33.93
63321;BME280;49449;48.800;9.534;2023-02-28T04:37:07;99210.19;;;0.60;34.47
63321;BME280;49449;48.800;9.534;2023-02-28T04:39:39;99208.41;;;0.61;34.83
63321;BME280;49449;48.800;9.534;2023-02-28T04:42:09;99210.09;;;0.52;35.18
63321;BME280;49449;48.800;9.534;2023-02-28T04:44:37;99204.16;;;0.60;34.42
63321;BME280;49449;48.800;9.534;2023-02-28T04:47:05;99207.00;;;0.67;35.09
63321;BME280;49449;48.800;9.534;2023-02-28T04:49:33;99210.28;;;0.69;35.17
63321;BME280;49449;48.800;9.534;2023-02-28T04:52:00;99198.69;;;0.63;36.38
63321;BME280;49449;48.800;9.534;2023-02-28T04:54:28;99204.09;;;0.52;34.38
63321;BME280;49449;48.800;9.534;2023-02-28T04:56:56;99203.22;;;0.61;35.00
63321;BME280;49449;48.800;9.534;2023-02-28T04:59:25;99209.38;;;0.60;34.58
63321;BME280;49449;48.800;9.534;2023-02-28T05:01:53;99206.75;;;0.60;34.37
63321;BME280;49449;48.800;9.534;2023-02-28T05:04:21;99219.31;;;0.47;35.21
63321;BME280;49449;48.800;9.534;2023-02-28T05:06:48;99211.84;;;0.34;33.56
63321;BME280;49449;48.800;9.534;2023-02-28T05:09:16;99207.03;;;0.39;33.85
63321;BME280;49449;48.800;9.534;2023-02-28T05:11:44;99200.28;;;0.46;34.44
63321;BME280;49449;48.800;9.534;2023-02-28T05:14:13;99209.81;;;0.28;34.02
63321;BME280;49449;48.800;9.534;2023-02-28T05:16:42;99201.00;;;0.11;34.15
63321;BME280;49449;48.800;9.534;2023-02-28T05:19:10;99209.41;;;-0.05;33.93
63321;BME280;49449;48.800;9.534;2023-02-28T05:21:40;99208.22;;;0.17;33.89
63321;BME280;49449;48.800;9.534;2023-02-28T05:24:10;99206.72;;;-0.23;37.17
63321;BME280;49449;48.800;9.534;2023-02-28T05:26:40;99209.06;;;-0.30;34.73
63321;BME280;49449;48.800;9.534;2023-02-28T05:29:09;99216.00;;;-0.11;34.67
63321;BME280;49449;48.800;9.534;2023-02-28T05:31:37;99223.97;;;-0.32;34.76
63321;BME280;49449;48.800;9.534;2023-02-28T05:34:07;99216.59;;;-0.37;35.32
63321;BME280;49449;48.800;9.534;2023-02-28T05:36:38;99223.38;;;-0.16;35.41
63321;BME280;49449;48.800;9.534;2023-02-28T05:39:05;99215.09;;;-0.29;36.08
63321;BME280;49449;48.800;9.534;2023-02-28T05:41:33;99223.25;;;-0.24;35.18
63321;BME280;49449;48.800;9.534;2023-02-28T05:44:01;99228.03;;;-0.20;35.02
63321;BME280;49449;48.800;9.534;2023-02-28T05:46:29;99216.91;;;-0.02;35.50
63321;BME280;49449;48.800;9.534;2023-02-28T05:48:57;99221.72;;;-0.07;34.64
63321;BME280;49449;48.800;9.534;2023-02-28T05:51:28;99219.97;;;-0.17;34.55
63321;BME280;49449;48.800;9.534;2023-02-28T05:53:59;99231.50;;;-0.29;34.60
63321;BME280;49449;48.800;9.534;2023-02-28T05:56:28;99222.72;;;-0.28;34.36
63321;BME280;49449;48.800;9.534;2023-02-28T05:58:56;99227.41;;;-0.41;35.03
63321;BME280;49449;48.800;9.534;2023-02-28T06:01:30;99232.03;;;-0.25;34.75
63321;BME280;49449;48.800;9.534;2023-02-28T06:04:00;99226.88;;;-0.55;35.64
63321;BME280;49449;48.800;9.534;2023-02-28T06:06:29;99234.38;;;-0.42;34.47
63321;BME280;49449;48.800;9.534;2023-02-28T06:08:57;99238.34;;;-0.38;35.01
63321;BME280;49449;48.800;9.534;2023-02-28T06:11:25;99235.06;;;-0.40;35.21
63321;BME280;49449;48.800;9.534;2023-02-28T06:13:54;99235.75;;;-0.47;35.55
63321;BME280;49449;48.800;9.534;2023-02-28T06:16:23;99245.16;;;-0.37;35.26
63321;BME280;49449;48.800;9.534;2023-02-28T06:18:51;99241.31;;;-0.23;35.28
63321;BME280;49449;48.800;9.534;2023-02-28T06:21:22;99248.97;;;-0.21;34.96
63321;BME280;49449;48.800;9.534;2023-02-28T06:23:51;99242.78;;;-0.10;35.12
63321;BME280;49449;48.800;9.534;2023-02-28T06:26:20;99237.50;;;-0.28;34.89
63321;BME280;49449;48.800;9.534;2023-02-28T06:28:48;99243.44;;;-0.08;35.60
63321;BME280;49449;48.800;9.534;2023-02-28T06:31:17;99260.47;;;-0.24;35.01
63321;BME280;49449;48.800;9.534;2023-02-28T06:33:45;99255.66;;;-0.19;34.61
63321;BME280;49449;48.800;9.534;2023-02-28T06:36:14;99249.50;;;-0.18;34.85
63321;BME280;49449;48.800;9.534;2023-02-28T06:38:43;99259.59;;;-0.14;35.86
63321;BME280;49449;48.800;9.534;2023-02-28T06:41:12;99256.47;;;-0.18;35.01
63321;BME280;49449;48.800;9.534;2023-02-28T06:43:41;99265.41;;;-0.69;35.23
63321;BME280;49449;48.800;9.534;2023-02-28T06:46:12;99265.25;;;-0.39;34.81
63321;BME280;49449;48.800;9.534;2023-02-28T06:48:42;99264.72;;;-0.42;35.17
63321;BME280;49449;48.800;9.534;2023-02-28T06:51:12;99278.25;;;-0.48;35.00
63321;BME280;49449;48.800;9.534;2023-02-28T06:53:41;99273.97;;;-0.20;34.67
63321;BME280;49449;48.800;9.534;2023-02-28T06:56:12;99280.41;;;-0.14;34.57
63321;BME280;49449;48.800;9.534;2023-02-28T06:58:40;99274.94;;;-0.11;34.55
63321;BME280;49449;48.800;9.534;2023-02-28T07:01:08;99277.97;;;-0.26;35.52
63321;BME280;49449;48.800;9.534;2023-02-28T07:03:36;99270.16;;;-0.26;34.73
63321;BME280;49449;48.800;9.534;2023-02-28T07:06:04;99279.59;;;-0.25;34.97
63321;BME280;49449;48.800;9.534;2023-02-28T07:08:33;99281.34;;;-0.06;34.86
63321;BME280;49449;48.800;9.534;2023-02-28T07:11:01;99273.50;;;0.04;35.63
63321;BME280;49449;48.800;9.534;2023-02-28T07:13:31;99288.13;;;0.05;34.63
63321;BME280;49449;48.800;9.534;2023-02-28T07:16:00;99274.88;;;0.08;35.07
63321;BME280;49449;48.800;9.534;2023-02-28T07:18:28;99288.47;;;-0.37;35.03
63321;BME280;49449;48.800;9.534;2023-02-28T07:20:56;99285.88;;;-0.37;35.18
63321;BME280;49449;48.800;9.534;2023-02-28T07:23:24;99282.88;;;-0.32;35.34
63321;BME280;49449;48.800;9.534;2023-02-28T07:25:51;99284.66;;;-0.23;34.52
63321;BME280;49449;48.800;9.534;2023-02-28T07:28:19;99291.34;;;-0.30;35.13
63321;BME280;49449;48.800;9.534;2023-02-28T07:30:48;99288.63;;;-0.39;35.07
63321;BME280;49449;48.800;9.534;2023-02-28T07:33:16;99290.00;;;-0.44;35.51
63321;BME280;49449;48.800;9.534;2023-02-28T07:35:44;99294.09;;;-0.22;35.47
63321;BME280;49449;48.800;9.534;2023-02-28T07:38:12;99288.63;;;-0.39;35.68
63321;BME280;49449;48.800;9.534;2023-02-28T07:40:41;99296.84;;;-0.43;35.35
63321;BME280;49449;48.800;9.534;2023-02-28T07:43:08;99297.50;;;-0.51;35.15
63321;BME280;49449;48.800;9.534;2023-02-28T07:45:36;99297.25;;;-0.48;34.93
63321;BME280;49449;48.800;9.534;2023-02-28T07:48:06;99295.47;;;-0.77;35.49
63321;BME280;49449;48.800;9.534;2023-02-28T07:50:36;99299.56;;;-0.84;35.79
63321;BME280;49449;48.800;9.534;2023-02-28T07:53:04;99299.00;;;-0.78;36.72
63321;BME280;49449;48.800;9.534;2023-02-28T07:55:32;99298.44;;;-0.81;35.60
63321;BME280;49449;48.800;9.534;2023-02-28T07:57:59;99303.25;;;-0.67;35.30
63321;BME280;49449;48.800;9.534;2023-02-28T08:00:27;99308.31;;;-0.56;35.64
63321;BME280;49449;48.800;9.534;2023-02-28T08:02:55;99297.91;;;-0.65;35.46
63321;BME280;49449;48.800;9.534;2023-02-28T08:05:24;99301.19;;;-0.63;36.13
63321;BME280;49449;48.800;9.534;2023-02-28T08:07:52;99301.88;;;-0.32;35.87
63321;BME280;49449;48.800;9.534;2023-02-28T08:10:21;99307.88;;;-0.22;34.98
63321;BME280;49449;48.800;9.534;2023-02-28T08:12:49;99309.94;;;-0.25;34.97
63321;BME280;49449;48.800;9.534;2023-02-28T08:15:17;99314.03;;;-0.23;35.04
63321;BME280;49449;48.800;9.534;2023-02-28T08:17:44;99302.97;;;-0.15;35.13
63321;BME280;49449;48.800;9.534;2023-02-28T08:20:12;99304.19;;;-0.09;35.38
63321;BME280;49449;48.800;9.534;2023-02-28T08:22:42;99314.16;;;-0.24;35.34
63321;BME280;49449;48.800;9.534;2023-02-28T08:25:11;99310.34;;;-0.20;35.08
63321;BME280;49449;48.800;9.534;2023-02-28T08:27:39;99308.59;;;-0.29;35.42
63321;BME280;49449;48.800;9.534;2023-02-28T08:30:09;99306.94;;;-0.30;34.72
63321;BME280;49449;48.800;9.534;2023-02-28T08:32:37;99310.75;;;-0.25;35.07
63321;BME280;49449;48.800;9.534;2023-02-28T08:35:06;99310.91;;;-0.36;35.48
63321;BME280;49449;48.800;9.534;2023-02-28T08:37:35;99311.84;;;-0.08;35.16
63321;BME280;49449;48.800;9.534;2023-02-28T08:40:06;99308.13;;;-0.05;34.73
63321;BME280;49449;48.800;9.534;2023-02-28T08:42:34;99309.50;;;-0.11;36.27
63321;BME280;49449;48.800;9.534;2023-02-28T08:45:02;99307.84;;;-0.02;35.86
63321;BME280;49449;48.800;9.534;2023-02-28T08:47:30;99311.38;;;0.07;35.37
63321;BME280;49449;48.800;9.534;2023-02-28T08:49:58;99310.28;;;0.09;34.75
63321;BME280;49449;48.800;9.534;2023-02-28T08:52:25;99312.88;;;0.19;34.36
63321;BME280;49449;48.800;9.534;2023-02-28T08:54:53;99307.44;;;-0.07;35.99
63321;BME280;49449;48.800;9.534;2023-02-28T08:57:22;99309.34;;;0.00;34.51
63321;BME280;49449;48.800;9.534;2023-02-28T08:59:52;99306.81;;;0.28;34.59
63321;BME280;49449;48.800;9.534;2023-02-28T09:02:20;99314.06;;;0.34;34.15
63321;BME280;49449;48.800;9.534;2023-02-28T09:04:48;99319.31;;;0.15;34.68
63321;BME280;49449;48.800;9.534;2023-02-28T09:07:15;99311.47;;;0.25;36.00
63321;BME280;49449;48.800;9.534;2023-02-28T09:09:43;99311.75;;;0.21;34.38
63321;BME280;49449;48.800;9.534;2023-02-28T09:12:23;99312.72;;;0.20;33.47
63321;BME280;49449;48.800;9.534;2023-02-28T09:14:51;99315.59;;;0.17;34.35
63321;BME280;49449;48.800;9.534;2023-02-28T09:17:20;99322.41;;;0.28;34.03
63321;BME280;49449;48.800;9.534;2023-02-28T09:19:48;99315.31;;;0.58;34.36
63321;BME280;49449;48.800;9.534;2023-02-28T09:22:16;99319.59;;;0.49;33.35
63321;BME280;49449;48.800;9.534;2023-02-28T09:24:43;99318.88;;;0.57;35.02
63321;BME280;49449;48.800;9.534;2023-02-28T09:27:12;99323.31;;;0.47;34.07
63321;BME280;49449;48.800;9.534;2023-02-28T09:29:41;99326.47;;;0.40;34.47
63321;BME280;49449;48.800;9.534;2023-02-28T09:32:08;99322.41;;;0.28;34.33
63321;BME280;49449;48.800;9.534;2023-02-28T09:34:37;99312.06;;;0.56;34.37
63321;BME280;49449;48.800;9.534;2023-02-28T09:37:05;99314.19;;;0.70;36.78
63321;BME280;49449;48.800;9.534;2023-02-28T09:39:32;99326.00;;;0.27;33.68
63321;BME280;49449;48.800;9.534;2023-02-28T09:42:02;99323.91;;;0.31;33.70
63321;BME280;49449;48.800;9.534;2023-02-28T09:44:33;99327.72;;;0.36;32.85
63321;BME280;49449;48.800;9.534;2023-02-28T09:47:11;99328.69;;;0.35;32.78
63321;BME280;49449;48.800;9.534;2023-02-28T09:49:42;99322.38;;;0.38;33.57
63321;BME280;49449;48.800;9.534;2023-02-28T09:52:16;99333.91;;;0.63;33.01
63321;BME280;49449;48.800;9.534;2023-02-28T09:54:46;99325.47;;;0.51;33.37
63321;BME280;49449;48.800;9.534;2023-02-28T09:57:19;99332.84;;;0.56;32.62
63321;BME280;49449;48.800;9.534;2023-02-28T09:59:57;99327.31;;;0.69;32.83
63321;BME280;49449;48.800;9.534;2023-02-28T10:02:46;99326.81;;;1.11;32.77
63321;BME280;49449;48.800;9.534;2023-02-28T10:05:20;99329.25;;;0.94;32.58
63321;BME280;49449;48.800;9.534;2023-02-28T10:08:03;99332.00;;;0.65;32.52
63321;BME280;49449;48.800;9.534;2023-02-28T10:10:38;99343.13;;;0.57;32.30
63321;BME280;49449;48.800;9.534;2023-02-28T10:13:13;99350.66;;;0.51;33.00
63321;BME280;49449;48.800;9.534;2023-02-28T10:15:45;99342.97;;;0.87;32.26
63321;BME280;49449;48.800;9.534;2023-02-28T10:18:21;99349.53;;;0.63;32.50
63321;BME280;49449;48.800;9.534;2023-02-28T10:20:51;99350.44;;;0.72;32.12
63321;BME280;49449;48.800;9.534;2023-02-28T10:23:21;99348.66;;;0.72;32.27
63321;BME280;49449;48.800;9.534;2023-02-28T10:25:55;99347.88;;;1.00;31.92
63321;BME280;49449;48.800;9.534;2023-02-28T10:28:25;99351.66;;;1.05;31.85
63321;BME280;49449;48.800;9.534;2023-02-28T10:30:54;99342.22;;;1.22;31.56
63321;BME280;49449;48.800;9.534;2023-02-28T10:33:26;99337.47;;;1.45;31.72
63321;BME280;49449;48.800;9.534;2023-02-28T10:35:55;99344.94;;;1.66;31.45
63321;BME280;49449;48.800;9.534;2023-02-28T10:38:25;99336.66;;;1.89;30.93
63321;BME280;49449;48.800;9.534;2023-02-28T10:41:04;99337.03;;;1.94;30.65
63321;BME280;49449;48.800;9.534;2023-02-28T10:43:32;99333.91;;;1.90;30.75
63321;BME280;49449;48.800;9.534;2023-02-28T10:46:03;99340.69;;;2.27;30.80
63321;BME280;49449;48.800;9.534;2023-02-28T10:48:38;99322.31;;;2.72;31.19
63321;BME280;49449;48.800;9.534;2023-02-28T10:51:10;99330.03;;;2.90;29.39
63321;BME280;49449;48.800;9.534;2023-02-28T10:53:45;99329.44;;;2.96;29.14
63321;BME280;49449;48.800;9.534;2023-02-28T10:56:26;99320.84;;;3.28;29.56
63321;BME280;49449;48.800;9.534;2023-02-28T10:58:56;99330.53;;;3.44;29.41
63321;BME280;49449;48.800;9.534;2023-02-28T11:01:27;99328.91;;;3.35;28.46
63321;BME280;49449;48.800;9.534;2023-02-28T11:04:03;99327.44;;;3.57;28.78
63321;BME280;49449;48.800;9.534;2023-02-28T11:06:32;99334.16;;;3.68;28.89
63321;BME280;49449;48.800;9.534;2023-02-28T11:09:03;99330.53;;;3.60;29.07
63321;BME280;49449;48.800;9.534;2023-02-28T11:11:42;99328.59;;;4.12;29.20
63321;BME280;49449;48.800;9.534;2023-02-28T11:14:18;99325.44;;;4.25;28.32
63321;BME280;49449;48.800;9.534;2023-02-28T11:16:48;99323.16;;;4.30;28.54
63321;BME280;49449;48.800;9.534;2023-02-28T11:19:22;99328.22;;;4.31;28.28
63321;BME280;49449;48.800;9.534;2023-02-28T11:21:55;99320.41;;;4.07;28.79
63321;BME280;49449;48.800;9.534;2023-02-28T11:24:27;99325.13;;;4.19;28.17
63321;BME280;49449;48.800;9.534;2023-02-28T11:26:57;99312.69;;;4.30;28.68
63321;BME280;49449;48.800;9.534;2023-02-28T11:29:27;99314.69;;;4.59;28.48
63321;BME280;49449;48.800;9.534;2023-02-28T11:32:12;99303.44;;;4.90;27.00
63321;BME280;49449;48.800;9.534;2023-02-28T11:34:42;99318.38;;;4.81;27.69
63321;BME280;49449;48.800;9.534;2023-02-28T11:37:13;99302.59;;;5.06;27.00
63321;BME280;49449;48.800;9.534;2023-02-28T11:39:42;99301.41;;;4.77;26.84
63321;BME280;49449;48.800;9.534;2023-02-28T11:42:34;99303.97;;;4.85;29.52
63321;BME280;49449;48.800;9.534;2023-02-28T11:45:18;99298.53;;;4.55;27.28
63321;BME280;49449;48.800;9.534;2023-02-28T11:47:58;99300.47;;;4.62;27.32
63321;BME280;49449;48.800;9.534;2023-02-28T11:50:52;99293.47;;;4.85;27.96
63321;BME280;49449;48.800;9.534;2023-02-28T11:53:44;99296.97;;;4.77;27.14
63321;BME280;49449;48.800;9.534;2023-02-28T11:56:19;99302.41;;;4.68;27.31
63321;BME280;49449;48.800;9.534;2023-02-28T11:58:55;99298.53;;;4.55;28.72
63321;BME280;49449;48.800;9.534;2023-02-28T12:01:38;99310.81;;;4.55;27.06
63321;BME280;49449;48.800;9.534;2023-02-28T12:04:25;99301.81;;;4.49;27.39
63321;BME280;49449;48.800;9.534;2023-02-28T12:07:03;99296.34;;;4.19;28.08
63321;BME280;49449;48.800;9.534;2023-02-28T12:09:43;99296.72;;;3.92;27.35
63321;BME280;49449;48.800;9.534;2023-02-28T12:12:23;99293.59;;;4.05;27.36
63321;BME280;49449;48.800;9.534;2023-02-28T12:15:28;99298.00;;;4.12;27.80
63321;BME280;49449;48.800;9.534;2023-02-28T12:18:18;99289.13;;;4.30;28.75
63321;BME280;49449;48.800;9.534;2023-02-28T12:20:54;99288.22;;;4.54;27.41
63321;BME280;49449;48.800;9.534;2023-02-28T12:23:44;99283.19;;;4.52;28.68
63321;BME280;49449;48.800;9.534;2023-02-28T12:26:21;99278.84;;;4.68;27.51
63321;BME280;49449;48.800;9.534;2023-02-28T12:29:00;99277.69;;;4.70;27.72
63321;BME280;49449;48.800;9.534;2023-02-28T12:31:33;99269.78;;;4.47;28.50
63321;BME280;49449;48.800;9.534;2023-02-28T12:34:06;99264.91;;;4.75;27.62
63321;BME280;49449;48.800;9.534;2023-02-28T12:36:36;99264.91;;;4.75;29.75
63321;BME280;49449;48.800;9.534;2023-02-28T12:39:11;99273.06;;;5.12;28.17
63321;BME280;49449;48.800;9.534;2023-02-28T12:41:42;99262.41;;;4.90;26.49
63321;BME280;49449;48.800;9.534;2023-02-28T12:44:17;99263.50;;;4.65;27.52
63321;BME280;49449;48.800;9.534;2023-02-28T12:46:47;99256.47;;;4.97;28.44
63321;BME280;49449;48.800;9.534;2023-02-28T12:49:19;99249.31;;;5.13;27.56
63321;BME280;49449;48.800;9.534;2023-02-28T12:51:49;99249.84;;;5.09;28.62
63321;BME280;49449;48.800;9.534;2023-02-28T12:54:24;99247.56;;;5.06;29.07
63321;BME280;49449;48.800;9.534;2023-02-28T12:56:58;99256.75;;;4.70;28.39
63321;BME280;49449;48.800;9.534;2023-02-28T12:59:35;99248.59;;;4.65;28.50
63321;BME280;49449;48.800;9.534;2023-02-28T13:05:22;99250.94;;;4.52;26.78
63321;BME280;49449;48.800;9.534;2023-02-28T13:08:27;99247.50;;;4.51;27.02
63321;BME280;49449;48.800;9.534;2023-02-28T13:11:02;99241.34;;;4.75;26.62
63321;BME280;49449;48.800;9.534;2023-02-28T13:13:35;99237.84;;;4.83;26.74
63321;BME280;49449;48.800;9.534;2023-02-28T13:16:06;99241.75;;;4.87;27.25
63321;BME280;49449;48.800;9.534;2023-02-28T13:18:36;99243.28;;;5.13;27.75
63321;BME280;49449;48.800;9.534;2023-02-28T13:21:07;99233.59;;;5.13;28.10
63321;BME280;49449;48.800;9.534;2023-02-28T13:23:40;99242.22;;;4.99;26.67
63321;BME280;49449;48.800;9.534;2023-02-28T13:26:09;99229.47;;;5.19;27.14
63321;BME280;49449;48.800;9.534;2023-02-28T13:29:20;99230.03;;;5.29;26.89
63321;BME280;49449;48.800;9.534;2023-02-28T13:32:30;99242.00;;;5.32;27.55
63321;BME280;49449;48.800;9.534;2023-02-28T13:35:14;99237.47;;;4.94;27.31
63321;BME280;49449;48.800;9.534;2023-02-28T13:37:43;99245.00;;;4.89;27.34
63321;BME280;49449;48.800;9.534;2023-02-28T13:40:29;99240.66;;;4.82;26.98